Tusket, Canada
Current Conditions -  °F | °C
As of 8:00 PM on Tuesday 21 Oct 2014 (Local Time) from CYQI Reporting Station
Overcast Overcast  
Wind Chill: 55°   Ceiling: 10000
Heat Index: 55°   Visibility: 15mi
Dew Point: 48°   Wind: 10mph
Humidity: 77%   Direction: 110°ESE
Pressure: 30.13"   Gusts: NA
Location:  43.86°N, 65.98°W
Report Text: CYQI 212300Z 11009KT 15SM SCT070 OVC100 13/09 A3013 RMK AC3AC5 SLP203
Loading
Personal Weather Stations






























Interactive Weather Map
Tropical Storm Tracking
New forecast layout! Learn more

10-Day Weather Forecast

Advertisements
Track Severe Weather on mobile